sensor_id;sensor_type;location;lat;lon;timestamp;temperature;humidity
57026;DHT22;43961;52.940;6.834;2022-08-24T00:01:07;19.90;99.90
57026;DHT22;43961;52.940;6.834;2022-08-24T00:03:34;19.90;99.90
57026;DHT22;43961;52.940;6.834;2022-08-24T00:06:00;19.90;99.90
57026;DHT22;43961;52.940;6.834;2022-08-24T00:08:27;19.80;99.90
57026;DHT22;43961;52.940;6.834;2022-08-24T00:10:53;19.80;99.90
57026;DHT22;43961;52.940;6.834;2022-08-24T00:13:19;19.80;99.90
57026;DHT22;43961;52.940;6.834;2022-08-24T00:15:45;19.80;99.90
57026;DHT22;43961;52.940;6.834;2022-08-24T00:18:13;19.80;99.90
57026;DHT22;43961;52.940;6.834;2022-08-24T00:20:39;19.80;99.90
57026;DHT22;43961;52.940;6.834;2022-08-24T00:23:06;19.70;99.90
57026;DHT22;43961;52.940;6.834;2022-08-24T00:25:32;19.70;99.90
57026;DHT22;43961;52.940;6.834;2022-08-24T00:27:59;19.60;99.90
57026;DHT22;43961;52.940;6.834;2022-08-24T00:30:26;19.60;99.90
57026;DHT22;43961;52.940;6.834;2022-08-24T00:32:52;19.50;99.90
57026;DHT22;43961;52.940;6.834;2022-08-24T00:35:19;19.50;99.90
57026;DHT22;43961;52.940;6.834;2022-08-24T00:37:46;19.50;99.90
57026;DHT22;43961;52.940;6.834;2022-08-24T00:40:21;19.40;99.90
57026;DHT22;43961;52.940;6.834;2022-08-24T00:42:48;19.40;99.90
57026;DHT22;43961;52.940;6.834;2022-08-24T00:45:16;19.40;99.90
57026;DHT22;43961;52.940;6.834;2022-08-24T00:47:53;19.40;99.90
57026;DHT22;43961;52.940;6.834;2022-08-24T00:50:40;19.50;99.90
57026;DHT22;43961;52.940;6.834;2022-08-24T00:53:23;19.40;99.90
57026;DHT22;43961;52.940;6.834;2022-08-24T00:55:52;19.40;99.90
57026;DHT22;43961;52.940;6.834;2022-08-24T00:58:23;19.40;99.90
57026;DHT22;43961;52.940;6.834;2022-08-24T01:00:58;19.40;99.90
57026;DHT22;43961;52.940;6.834;2022-08-24T01:03:25;19.30;99.90
57026;DHT22;43961;52.940;6.834;2022-08-24T01:05:52;19.30;99.90
57026;DHT22;43961;52.940;6.834;2022-08-24T01:08:18;19.30;99.90
57026;DHT22;43961;52.940;6.834;2022-08-24T01:10:57;19.20;99.90
57026;DHT22;43961;52.940;6.834;2022-08-24T01:13:27;19.20;99.90
57026;DHT22;43961;52.940;6.834;2022-08-24T01:15:58;19.20;99.90
57026;DHT22;43961;52.940;6.834;2022-08-24T01:18:24;19.20;99.90
57026;DHT22;43961;52.940;6.834;2022-08-24T01:21:33;19.20;99.90
57026;DHT22;43961;52.940;6.834;2022-08-24T01:24:04;19.20;99.90
57026;DHT22;43961;52.940;6.834;2022-08-24T01:26:37;19.20;99.90
57026;DHT22;43961;52.940;6.834;2022-08-24T01:29:10;19.20;99.90
57026;DHT22;43961;52.940;6.834;2022-08-24T01:31:38;19.10;99.90
57026;DHT22;43961;52.940;6.834;2022-08-24T01:34:04;19.10;99.90
57026;DHT22;43961;52.940;6.834;2022-08-24T01:36:43;19.10;99.90
57026;DHT22;43961;52.940;6.834;2022-08-24T01:39:18;19.10;99.90
57026;DHT22;43961;52.940;6.834;2022-08-24T01:41:46;19.10;99.90
57026;DHT22;43961;52.940;6.834;2022-08-24T01:44:12;19.10;99.90
57026;DHT22;43961;52.940;6.834;2022-08-24T01:46:45;18.90;99.90
57026;DHT22;43961;52.940;6.834;2022-08-24T01:49:11;18.90;99.90
57026;DHT22;43961;52.940;6.834;2022-08-24T01:51:37;18.90;99.90
57026;DHT22;43961;52.940;6.834;2022-08-24T01:54:04;18.90;99.90
57026;DHT22;43961;52.940;6.834;2022-08-24T01:56:31;18.80;99.90
57026;DHT22;43961;52.940;6.834;2022-08-24T01:58:57;18.60;99.90
57026;DHT22;43961;52.940;6.834;2022-08-24T02:01:24;18.70;99.90
57026;DHT22;43961;52.940;6.834;2022-08-24T02:03:51;18.70;99.90
57026;DHT22;43961;52.940;6.834;2022-08-24T02:06:17;18.60;99.90
57026;DHT22;43961;52.940;6.834;2022-08-24T02:08:44;18.70;99.90
57026;DHT22;43961;52.940;6.834;2022-08-24T02:11:10;18.70;99.90
57026;DHT22;43961;52.940;6.834;2022-08-24T02:13:38;18.70;99.90
57026;DHT22;43961;52.940;6.834;2022-08-24T02:16:05;18.60;99.90
57026;DHT22;43961;52.940;6.834;2022-08-24T02:18:33;18.50;99.90
57026;DHT22;43961;52.940;6.834;2022-08-24T02:20:59;18.50;99.90
57026;DHT22;43961;52.940;6.834;2022-08-24T02:23:25;18.50;99.90
57026;DHT22;43961;52.940;6.834;2022-08-24T02:25:53;18.50;99.90
57026;DHT22;43961;52.940;6.834;2022-08-24T02:28:21;18.50;99.90
57026;DHT22;43961;52.940;6.834;2022-08-24T02:30:47;18.50;99.90
57026;DHT22;43961;52.940;6.834;2022-08-24T02:33:13;18.40;99.90
57026;DHT22;43961;52.940;6.834;2022-08-24T02:35:39;18.30;99.90
57026;DHT22;43961;52.940;6.834;2022-08-24T02:38:07;18.30;99.90
57026;DHT22;43961;52.940;6.834;2022-08-24T02:40:34;18.20;99.90
57026;DHT22;43961;52.940;6.834;2022-08-24T02:43:00;18.20;99.90
57026;DHT22;43961;52.940;6.834;2022-08-24T02:45:25;18.20;99.90
57026;DHT22;43961;52.940;6.834;2022-08-24T02:47:51;18.20;99.90
57026;DHT22;43961;52.940;6.834;2022-08-24T02:50:18;18.00;99.90
57026;DHT22;43961;52.940;6.834;2022-08-24T02:52:44;18.00;99.90
57026;DHT22;43961;52.940;6.834;2022-08-24T02:55:14;18.00;99.90
57026;DHT22;43961;52.940;6.834;2022-08-24T02:57:40;18.00;99.90
57026;DHT22;43961;52.940;6.834;2022-08-24T03:00:10;18.00;99.90
57026;DHT22;43961;52.940;6.834;2022-08-24T03:02:37;18.00;99.90
57026;DHT22;43961;52.940;6.834;2022-08-24T03:05:03;18.00;99.90
57026;DHT22;43961;52.940;6.834;2022-08-24T03:07:29;18.00;99.90
57026;DHT22;43961;52.940;6.834;2022-08-24T03:09:55;18.00;99.90
57026;DHT22;43961;52.940;6.834;2022-08-24T03:12:21;18.00;99.90
57026;DHT22;43961;52.940;6.834;2022-08-24T03:14:46;18.00;99.90
57026;DHT22;43961;52.940;6.834;2022-08-24T03:17:12;17.90;99.90
57026;DHT22;43961;52.940;6.834;2022-08-24T03:19:38;17.90;99.90
57026;DHT22;43961;52.940;6.834;2022-08-24T03:22:04;17.90;99.90
57026;DHT22;43961;52.940;6.834;2022-08-24T03:24:30;17.80;99.90
57026;DHT22;43961;52.940;6.834;2022-08-24T03:26:56;17.80;99.90
57026;DHT22;43961;52.940;6.834;2022-08-24T03:29:21;17.80;99.90
57026;DHT22;43961;52.940;6.834;2022-08-24T03:31:47;17.80;99.90
57026;DHT22;43961;52.940;6.834;2022-08-24T03:34:14;17.80;99.90
57026;DHT22;43961;52.940;6.834;2022-08-24T03:36:43;17.80;99.90
57026;DHT22;43961;52.940;6.834;2022-08-24T03:39:12;17.80;99.90
57026;DHT22;43961;52.940;6.834;2022-08-24T03:41:37;17.80;99.90
57026;DHT22;43961;52.940;6.834;2022-08-24T03:44:03;17.80;99.90
57026;DHT22;43961;52.940;6.834;2022-08-24T03:46:33;17.80;99.90
57026;DHT22;43961;52.940;6.834;2022-08-24T03:49:01;17.80;99.90
57026;DHT22;43961;52.940;6.834;2022-08-24T03:51:28;17.70;99.90
57026;DHT22;43961;52.940;6.834;2022-08-24T03:53:57;17.70;99.90
57026;DHT22;43961;52.940;6.834;2022-08-24T03:56:23;17.70;99.90
57026;DHT22;43961;52.940;6.834;2022-08-24T03:58:49;17.70;99.90
57026;DHT22;43961;52.940;6.834;2022-08-24T04:01:15;17.70;99.90
57026;DHT22;43961;52.940;6.834;2022-08-24T04:03:43;17.70;99.90
57026;DHT22;43961;52.940;6.834;2022-08-24T04:06:10;17.50;99.90
57026;DHT22;43961;52.940;6.834;2022-08-24T04:08:37;17.50;99.90
57026;DHT22;43961;52.940;6.834;2022-08-24T04:11:03;17.50;99.90
57026;DHT22;43961;52.940;6.834;2022-08-24T04:13:29;17.40;99.90
57026;DHT22;43961;52.940;6.834;2022-08-24T04:16:07;17.50;99.90
57026;DHT22;43961;52.940;6.834;2022-08-24T04:18:33;17.50;99.90
57026;DHT22;43961;52.940;6.834;2022-08-24T04:20:59;17.50;99.90
57026;DHT22;43961;52.940;6.834;2022-08-24T04:23:27;17.40;99.90
57026;DHT22;43961;52.940;6.834;2022-08-24T04:25:52;17.30;99.90
57026;DHT22;43961;52.940;6.834;2022-08-24T04:28:19;17.20;99.90
57026;DHT22;43961;52.940;6.834;2022-08-24T04:30:48;17.10;99.90
57026;DHT22;43961;52.940;6.834;2022-08-24T04:33:16;16.90;99.90
57026;DHT22;43961;52.940;6.834;2022-08-24T04:35:44;16.90;99.90
57026;DHT22;43961;52.940;6.834;2022-08-24T04:38:10;16.70;99.90
57026;DHT22;43961;52.940;6.834;2022-08-24T04:40:40;16.60;99.90
57026;DHT22;43961;52.940;6.834;2022-08-24T04:43:06;16.50;99.90
57026;DHT22;43961;52.940;6.834;2022-08-24T04:45:36;16.40;99.90
57026;DHT22;43961;52.940;6.834;2022-08-24T04:48:02;16.50;99.90
57026;DHT22;43961;52.940;6.834;2022-08-24T04:50:28;16.60;99.90
57026;DHT22;43961;52.940;6.834;2022-08-24T04:52:54;16.70;99.90
57026;DHT22;43961;52.940;6.834;2022-08-24T04:55:19;16.70;99.90
57026;DHT22;43961;52.940;6.834;2022-08-24T04:57:45;16.60;99.90
57026;DHT22;43961;52.940;6.834;2022-08-24T05:00:11;16.70;99.90
57026;DHT22;43961;52.940;6.834;2022-08-24T05:02:37;16.80;99.90
57026;DHT22;43961;52.940;6.834;2022-08-24T05:05:06;16.80;99.90
57026;DHT22;43961;52.940;6.834;2022-08-24T05:07:32;17.00;99.90
57026;DHT22;43961;52.940;6.834;2022-08-24T05:09:58;17.10;99.90
57026;DHT22;43961;52.940;6.834;2022-08-24T05:12:23;17.20;99.90
57026;DHT22;43961;52.940;6.834;2022-08-24T05:14:49;17.30;99.90
57026;DHT22;43961;52.940;6.834;2022-08-24T05:17:14;17.40;99.90
57026;DHT22;43961;52.940;6.834;2022-08-24T05:19:40;17.60;99.90
57026;DHT22;43961;52.940;6.834;2022-08-24T05:22:06;17.70;99.90
57026;DHT22;43961;52.940;6.834;2022-08-24T05:24:32;17.80;99.90
57026;DHT22;43961;52.940;6.834;2022-08-24T05:26:58;17.90;99.90
57026;DHT22;43961;52.940;6.834;2022-08-24T05:29:25;18.00;99.90
57026;DHT22;43961;52.940;6.834;2022-08-24T05:31:51;18.00;99.90
57026;DHT22;43961;52.940;6.834;2022-08-24T05:34:17;18.10;99.90
57026;DHT22;43961;52.940;6.834;2022-08-24T05:36:43;18.10;99.90
57026;DHT22;43961;52.940;6.834;2022-08-24T05:39:12;18.20;99.90
57026;DHT22;43961;52.940;6.834;2022-08-24T05:41:39;18.20;99.90
57026;DHT22;43961;52.940;6.834;2022-08-24T05:44:06;18.30;99.90
57026;DHT22;43961;52.940;6.834;2022-08-24T05:46:32;18.30;99.90
57026;DHT22;43961;52.940;6.834;2022-08-24T05:48:58;18.30;99.90
57026;DHT22;43961;52.940;6.834;2022-08-24T05:51:24;18.30;99.90
57026;DHT22;43961;52.940;6.834;2022-08-24T05:53:50;18.40;99.90
57026;DHT22;43961;52.940;6.834;2022-08-24T05:56:17;18.40;99.90
57026;DHT22;43961;52.940;6.834;2022-08-24T05:58:44;18.40;99.90
57026;DHT22;43961;52.940;6.834;2022-08-24T06:01:15;18.40;99.90
57026;DHT22;43961;52.940;6.834;2022-08-24T06:03:42;18.40;99.90
57026;DHT22;43961;52.940;6.834;2022-08-24T06:06:08;18.40;99.90
57026;DHT22;43961;52.940;6.834;2022-08-24T06:08:38;18.50;99.90
57026;DHT22;43961;52.940;6.834;2022-08-24T06:11:04;18.50;99.90
57026;DHT22;43961;52.940;6.834;2022-08-24T06:13:30;18.60;99.90
57026;DHT22;43961;52.940;6.834;2022-08-24T06:18:29;18.70;99.90
57026;DHT22;43961;52.940;6.834;2022-08-24T06:20:54;18.70;99.90
57026;DHT22;43961;52.940;6.834;2022-08-24T06:23:20;18.70;99.90
57026;DHT22;43961;52.940;6.834;2022-08-24T06:25:46;18.80;99.90
57026;DHT22;43961;52.940;6.834;2022-08-24T06:28:30;18.80;99.90
57026;DHT22;43961;52.940;6.834;2022-08-24T06:31:04;18.90;99.90
57026;DHT22;43961;52.940;6.834;2022-08-24T06:33:31;19.00;99.90
57026;DHT22;43961;52.940;6.834;2022-08-24T06:35:57;19.10;99.90
57026;DHT22;43961;52.940;6.834;2022-08-24T06:38:23;19.30;99.90
57026;DHT22;43961;52.940;6.834;2022-08-24T06:40:49;19.50;99.90
57026;DHT22;43961;52.940;6.834;2022-08-24T06:43:14;19.60;99.90
57026;DHT22;43961;52.940;6.834;2022-08-24T06:45:41;19.70;99.90
57026;DHT22;43961;52.940;6.834;2022-08-24T06:48:07;19.80;99.90
57026;DHT22;43961;52.940;6.834;2022-08-24T06:50:33;19.90;99.90
57026;DHT22;43961;52.940;6.834;2022-08-24T06:52:59;20.00;99.90
57026;DHT22;43961;52.940;6.834;2022-08-24T06:55:26;20.20;99.90
57026;DHT22;43961;52.940;6.834;2022-08-24T06:57:53;20.30;99.90
57026;DHT22;43961;52.940;6.834;2022-08-24T07:00:21;20.60;99.90
57026;DHT22;43961;52.940;6.834;2022-08-24T07:02:47;20.80;99.90
57026;DHT22;43961;52.940;6.834;2022-08-24T07:05:12;21.10;99.90
57026;DHT22;43961;52.940;6.834;2022-08-24T07:07:38;21.40;99.90
57026;DHT22;43961;52.940;6.834;2022-08-24T07:10:05;21.70;99.90
57026;DHT22;43961;52.940;6.834;2022-08-24T07:12:33;22.10;99.90
57026;DHT22;43961;52.940;6.834;2022-08-24T07:14:59;22.40;99.90
57026;DHT22;43961;52.940;6.834;2022-08-24T07:17:24;22.70;99.90
57026;DHT22;43961;52.940;6.834;2022-08-24T07:19:50;23.00;99.90
57026;DHT22;43961;52.940;6.834;2022-08-24T07:22:16;23.30;99.90
57026;DHT22;43961;52.940;6.834;2022-08-24T07:24:41;23.60;99.90
57026;DHT22;43961;52.940;6.834;2022-08-24T07:27:07;23.80;99.90
57026;DHT22;43961;52.940;6.834;2022-08-24T07:29:33;24.10;99.90
57026;DHT22;43961;52.940;6.834;2022-08-24T07:31:58;24.30;99.90
57026;DHT22;43961;52.940;6.834;2022-08-24T07:34:24;24.50;99.90
57026;DHT22;43961;52.940;6.834;2022-08-24T07:36:50;24.70;99.90
57026;DHT22;43961;52.940;6.834;2022-08-24T07:39:17;25.00;99.90
57026;DHT22;43961;52.940;6.834;2022-08-24T07:41:44;25.20;99.90
57026;DHT22;43961;52.940;6.834;2022-08-24T07:44:11;25.40;99.90
57026;DHT22;43961;52.940;6.834;2022-08-24T07:46:38;25.70;99.90
57026;DHT22;43961;52.940;6.834;2022-08-24T07:49:06;25.90;99.90
57026;DHT22;43961;52.940;6.834;2022-08-24T07:51:32;26.00;99.90
57026;DHT22;43961;52.940;6.834;2022-08-24T07:54:00;26.00;99.90
57026;DHT22;43961;52.940;6.834;2022-08-24T07:56:27;26.40;99.90
57026;DHT22;43961;52.940;6.834;2022-08-24T07:58:53;26.60;99.90
57026;DHT22;43961;52.940;6.834;2022-08-24T08:01:19;26.70;99.90
57026;DHT22;43961;52.940;6.834;2022-08-24T08:03:47;26.70;99.90
57026;DHT22;43961;52.940;6.834;2022-08-24T08:06:12;26.90;99.90
57026;DHT22;43961;52.940;6.834;2022-08-24T08:08:40;27.00;99.90
57026;DHT22;43961;52.940;6.834;2022-08-24T08:11:06;27.10;99.90
57026;DHT22;43961;52.940;6.834;2022-08-24T08:13:34;27.20;99.90
57026;DHT22;43961;52.940;6.834;2022-08-24T08:16:00;27.30;99.90
57026;DHT22;43961;52.940;6.834;2022-08-24T08:18:26;27.50;99.90
57026;DHT22;43961;52.940;6.834;2022-08-24T08:20:53;27.60;99.90
57026;DHT22;43961;52.940;6.834;2022-08-24T08:23:19;27.50;99.90
57026;DHT22;43961;52.940;6.834;2022-08-24T08:26:04;27.80;99.90
57026;DHT22;43961;52.940;6.834;2022-08-24T08:28:30;27.70;99.90
57026;DHT22;43961;52.940;6.834;2022-08-24T08:31:02;27.80;99.90
57026;DHT22;43961;52.940;6.834;2022-08-24T08:33:29;27.80;99.90
57026;DHT22;43961;52.940;6.834;2022-08-24T08:36:06;28.10;99.90
57026;DHT22;43961;52.940;6.834;2022-08-24T08:38:32;28.10;99.90
57026;DHT22;43961;52.940;6.834;2022-08-24T08:41:15;28.30;99.90
57026;DHT22;43961;52.940;6.834;2022-08-24T08:43:59;28.50;99.90
57026;DHT22;43961;52.940;6.834;2022-08-24T08:57:55;28.80;99.90
57026;DHT22;43961;52.940;6.834;2022-08-24T09:00:31;28.90;99.90
57026;DHT22;43961;52.940;6.834;2022-08-24T09:05:50;29.20;92.40
57026;DHT22;43961;52.940;6.834;2022-08-24T09:08:34;29.30;98.00
57026;DHT22;43961;52.940;6.834;2022-08-24T09:11:28;29.40;92.60
57026;DHT22;43961;52.940;6.834;2022-08-24T09:30:11;29.00;96.40
57026;DHT22;43961;52.940;6.834;2022-08-24T09:33:06;29.20;93.00
57026;DHT22;43961;52.940;6.834;2022-08-24T09:38:53;29.70;91.90
57026;DHT22;43961;52.940;6.834;2022-08-24T10:00:33;30.10;80.30
57026;DHT22;43961;52.940;6.834;2022-08-24T10:08:27;30.30;79.30
57026;DHT22;43961;52.940;6.834;2022-08-24T10:14:18;30.50;79.80
57026;DHT22;43961;52.940;6.834;2022-08-24T10:19:44;30.60;77.60
57026;DHT22;43961;52.940;6.834;2022-08-24T10:30:54;30.50;75.10
57026;DHT22;43961;52.940;6.834;2022-08-24T10:33:28;30.60;75.50
57026;DHT22;43961;52.940;6.834;2022-08-24T10:36:19;30.40;75.10
57026;DHT22;43961;52.940;6.834;2022-08-24T10:53:31;30.70;74.50
57026;DHT22;43961;52.940;6.834;2022-08-24T11:01:36;30.90;73.80
57026;DHT22;43961;52.940;6.834;2022-08-24T11:04:11;30.80;70.00
57026;DHT22;43961;52.940;6.834;2022-08-24T11:06:43;30.80;70.10
57026;DHT22;43961;52.940;6.834;2022-08-24T11:09:16;30.90;70.40
57026;DHT22;43961;52.940;6.834;2022-08-24T11:11:44;30.70;70.30
57026;DHT22;43961;52.940;6.834;2022-08-24T11:16:42;30.90;70.60
57026;DHT22;43961;52.940;6.834;2022-08-24T11:19:28;31.00;70.60
57026;DHT22;43961;52.940;6.834;2022-08-24T11:21:56;31.10;69.10
57026;DHT22;43961;52.940;6.834;2022-08-24T11:26:58;31.40;68.20
57026;DHT22;43961;52.940;6.834;2022-08-24T11:34:52;31.60;66.10
57026;DHT22;43961;52.940;6.834;2022-08-24T11:37:22;31.80;65.90
57026;DHT22;43961;52.940;6.834;2022-08-24T11:39:48;31.80;65.40
57026;DHT22;43961;52.940;6.834;2022-08-24T11:42:49;31.60;64.80
57026;DHT22;43961;52.940;6.834;2022-08-24T11:51:11;31.70;64.00
57026;DHT22;43961;52.940;6.834;2022-08-24T12:02:07;31.70;61.00
57026;DHT22;43961;52.940;6.834;2022-08-24T12:07:14;32.00;61.60
57026;DHT22;43961;52.940;6.834;2022-08-24T12:09:57;32.10;61.10
57026;DHT22;43961;52.940;6.834;2022-08-24T12:17:45;31.60;61.30
57026;DHT22;43961;52.940;6.834;2022-08-24T12:20:36;31.70;61.70
57026;DHT22;43961;52.940;6.834;2022-08-24T12:23:08;31.70;60.10
57026;DHT22;43961;52.940;6.834;2022-08-24T12:25:36;31.80;60.50
57026;DHT22;43961;52.940;6.834;2022-08-24T12:28:24;31.90;60.10
57026;DHT22;43961;52.940;6.834;2022-08-24T12:30:53;31.80;60.10
57026;DHT22;43961;52.940;6.834;2022-08-24T12:33:28;31.70;60.00
57026;DHT22;43961;52.940;6.834;2022-08-24T12:36:00;31.70;60.10
57026;DHT22;43961;52.940;6.834;2022-08-24T12:38:37;31.80;60.40
57026;DHT22;43961;52.940;6.834;2022-08-24T12:41:16;31.70;59.40
57026;DHT22;43961;52.940;6.834;2022-08-24T12:44:06;31.80;59.00
57026;DHT22;43961;52.940;6.834;2022-08-24T12:46:37;31.80;58.20
57026;DHT22;43961;52.940;6.834;2022-08-24T12:55:08;31.70;58.20
57026;DHT22;43961;52.940;6.834;2022-08-24T13:00:42;31.50;58.60
57026;DHT22;43961;52.940;6.834;2022-08-24T13:03:32;31.40;58.60
57026;DHT22;43961;52.940;6.834;2022-08-24T13:06:03;31.40;58.60
57026;DHT22;43961;52.940;6.834;2022-08-24T13:08:41;31.30;59.20
57026;DHT22;43961;52.940;6.834;2022-08-24T13:11:12;31.30;60.00
57026;DHT22;43961;52.940;6.834;2022-08-24T13:13:48;31.50;59.50
57026;DHT22;43961;52.940;6.834;2022-08-24T13:16:46;31.60;59.50
57026;DHT22;43961;52.940;6.834;2022-08-24T13:19:28;31.50;58.10
57026;DHT22;43961;52.940;6.834;2022-08-24T13:24:42;31.20;58.60
57026;DHT22;43961;52.940;6.834;2022-08-24T13:29:44;31.30;59.30
57026;DHT22;43961;52.940;6.834;2022-08-24T13:32:26;31.30;59.40
57026;DHT22;43961;52.940;6.834;2022-08-24T13:34:56;31.30;58.20
57026;DHT22;43961;52.940;6.834;2022-08-24T13:37:24;31.40;58.70
57026;DHT22;43961;52.940;6.834;2022-08-24T13:43:00;31.30;58.00
57026;DHT22;43961;52.940;6.834;2022-08-24T13:48:17;31.10;58.00
57026;DHT22;43961;52.940;6.834;2022-08-24T13:51:04;31.10;58.10
57026;DHT22;43961;52.940;6.834;2022-08-24T13:59:08;31.20;58.60
57026;DHT22;43961;52.940;6.834;2022-08-24T14:07:28;31.40;57.60
57026;DHT22;43961;52.940;6.834;2022-08-24T14:10:36;31.30;57.30
57026;DHT22;43961;52.940;6.834;2022-08-24T14:19:56;30.90;57.90
57026;DHT22;43961;52.940;6.834;2022-08-24T14:25:23;30.70;58.90
57026;DHT22;43961;52.940;6.834;2022-08-24T14:35:38;30.70;58.70
57026;DHT22;43961;52.940;6.834;2022-08-24T14:41:06;30.70;58.60
57026;DHT22;43961;52.940;6.834;2022-08-24T14:44:03;30.70;58.70
57026;DHT22;43961;52.940;6.834;2022-08-24T14:49:45;30.50;59.80
57026;DHT22;43961;52.940;6.834;2022-08-24T14:52:44;30.50;59.90
57026;DHT22;43961;52.940;6.834;2022-08-24T14:55:28;30.40;59.90
57026;DHT22;43961;52.940;6.834;2022-08-24T15:00:33;30.20;60.80
57026;DHT22;43961;52.940;6.834;2022-08-24T15:06:26;30.10;63.90
57026;DHT22;43961;52.940;6.834;2022-08-24T15:09:04;30.00;62.80
57026;DHT22;43961;52.940;6.834;2022-08-24T15:11:31;29.90;61.70
57026;DHT22;43961;52.940;6.834;2022-08-24T15:14:03;30.10;59.90
57026;DHT22;43961;52.940;6.834;2022-08-24T15:16:43;30.10;59.20
57026;DHT22;43961;52.940;6.834;2022-08-24T15:19:18;30.10;59.10
57026;DHT22;43961;52.940;6.834;2022-08-24T15:24:44;30.20;58.50
57026;DHT22;43961;52.940;6.834;2022-08-24T15:27:26;30.20;59.20
57026;DHT22;43961;52.940;6.834;2022-08-24T15:29:56;30.30;58.80
57026;DHT22;43961;52.940;6.834;2022-08-24T15:32:25;30.20;58.80
57026;DHT22;43961;52.940;6.834;2022-08-24T15:34:55;30.20;58.00
57026;DHT22;43961;52.940;6.834;2022-08-24T15:37:35;30.20;58.20
57026;DHT22;43961;52.940;6.834;2022-08-24T15:40:04;30.30;58.40
57026;DHT22;43961;52.940;6.834;2022-08-24T15:42:40;30.30;58.60
57026;DHT22;43961;52.940;6.834;2022-08-24T15:45:06;30.20;58.70
57026;DHT22;43961;52.940;6.834;2022-08-24T15:47:35;30.20;59.90
57026;DHT22;43961;52.940;6.834;2022-08-24T15:50:24;30.20;60.90
57026;DHT22;43961;52.940;6.834;2022-08-24T16:00:48;30.10;60.00
57026;DHT22;43961;52.940;6.834;2022-08-24T16:03:49;30.00;59.50
57026;DHT22;43961;52.940;6.834;2022-08-24T16:11:27;29.90;60.20
57026;DHT22;43961;52.940;6.834;2022-08-24T16:13:53;30.00;59.80
57026;DHT22;43961;52.940;6.834;2022-08-24T16:16:36;29.90;59.10
57026;DHT22;43961;52.940;6.834;2022-08-24T16:19:05;29.90;59.00
57026;DHT22;43961;52.940;6.834;2022-08-24T16:21:38;29.90;58.80
57026;DHT22;43961;52.940;6.834;2022-08-24T16:24:35;29.90;59.00
57026;DHT22;43961;52.940;6.834;2022-08-24T16:37:20;29.80;61.90
57026;DHT22;43961;52.940;6.834;2022-08-24T16:39:47;29.80;62.90
57026;DHT22;43961;52.940;6.834;2022-08-24T16:42:24;29.70;63.00
57026;DHT22;43961;52.940;6.834;2022-08-24T16:44:52;29.70;63.40
57026;DHT22;43961;52.940;6.834;2022-08-24T16:47:18;29.60;62.70
57026;DHT22;43961;52.940;6.834;2022-08-24T16:49:44;29.60;62.80
57026;DHT22;43961;52.940;6.834;2022-08-24T16:52:10;29.70;63.00
57026;DHT22;43961;52.940;6.834;2022-08-24T16:54:37;29.70;63.00
57026;DHT22;43961;52.940;6.834;2022-08-24T16:57:15;29.60;63.80
57026;DHT22;43961;52.940;6.834;2022-08-24T16:59:44;29.60;65.20
57026;DHT22;43961;52.940;6.834;2022-08-24T17:02:11;29.60;65.50
57026;DHT22;43961;52.940;6.834;2022-08-24T17:04:38;29.50;66.00
57026;DHT22;43961;52.940;6.834;2022-08-24T17:07:07;29.50;67.40
57026;DHT22;43961;52.940;6.834;2022-08-24T17:09:39;29.40;69.00
57026;DHT22;43961;52.940;6.834;2022-08-24T17:12:05;29.30;71.30
57026;DHT22;43961;52.940;6.834;2022-08-24T17:14:31;29.20;72.70
57026;DHT22;43961;52.940;6.834;2022-08-24T17:16:58;29.20;72.20
57026;DHT22;43961;52.940;6.834;2022-08-24T17:19:26;29.10;72.70
57026;DHT22;43961;52.940;6.834;2022-08-24T17:21:52;29.10;73.40
57026;DHT22;43961;52.940;6.834;2022-08-24T17:24:20;29.00;74.40
57026;DHT22;43961;52.940;6.834;2022-08-24T17:26:47;28.90;75.80
57026;DHT22;43961;52.940;6.834;2022-08-24T17:29:16;28.80;76.70
57026;DHT22;43961;52.940;6.834;2022-08-24T17:31:43;28.80;77.60
57026;DHT22;43961;52.940;6.834;2022-08-24T17:34:10;28.70;77.80
57026;DHT22;43961;52.940;6.834;2022-08-24T17:36:36;28.70;77.50
57026;DHT22;43961;52.940;6.834;2022-08-24T17:39:04;28.60;78.30
57026;DHT22;43961;52.940;6.834;2022-08-24T17:41:31;28.40;83.80
57026;DHT22;43961;52.940;6.834;2022-08-24T17:43:57;28.30;88.00
57026;DHT22;43961;52.940;6.834;2022-08-24T17:46:23;28.30;88.50
57026;DHT22;43961;52.940;6.834;2022-08-24T17:48:49;28.20;90.20
57026;DHT22;43961;52.940;6.834;2022-08-24T17:51:15;28.20;90.70
57026;DHT22;43961;52.940;6.834;2022-08-24T17:53:41;28.10;92.30
57026;DHT22;43961;52.940;6.834;2022-08-24T17:56:08;28.00;92.40
57026;DHT22;43961;52.940;6.834;2022-08-24T17:58:35;28.00;93.60
57026;DHT22;43961;52.940;6.834;2022-08-24T18:01:20;27.90;93.60
57026;DHT22;43961;52.940;6.834;2022-08-24T18:03:46;27.60;96.40
57026;DHT22;43961;52.940;6.834;2022-08-24T18:06:13;27.60;97.90
57026;DHT22;43961;52.940;6.834;2022-08-24T18:08:39;27.50;98.90
57026;DHT22;43961;52.940;6.834;2022-08-24T18:11:04;27.40;99.00
57026;DHT22;43961;52.940;6.834;2022-08-24T18:13:30;27.40;99.90
57026;DHT22;43961;52.940;6.834;2022-08-24T18:15:56;27.30;99.90
57026;DHT22;43961;52.940;6.834;2022-08-24T18:18:21;27.20;99.90
57026;DHT22;43961;52.940;6.834;2022-08-24T18:20:47;27.10;99.90
57026;DHT22;43961;52.940;6.834;2022-08-24T18:23:15;27.10;99.90
57026;DHT22;43961;52.940;6.834;2022-08-24T18:25:46;27.10;99.90
57026;DHT22;43961;52.940;6.834;2022-08-24T18:28:15;27.10;99.90
57026;DHT22;43961;52.940;6.834;2022-08-24T18:30:42;27.00;99.90
57026;DHT22;43961;52.940;6.834;2022-08-24T18:33:08;27.00;99.90
57026;DHT22;43961;52.940;6.834;2022-08-24T18:35:34;26.90;99.90
57026;DHT22;43961;52.940;6.834;2022-08-24T18:38:00;26.80;99.90
57026;DHT22;43961;52.940;6.834;2022-08-24T18:40:26;26.80;99.90
57026;DHT22;43961;52.940;6.834;2022-08-24T18:42:53;26.70;99.90
57026;DHT22;43961;52.940;6.834;2022-08-24T18:45:20;26.60;99.90
57026;DHT22;43961;52.940;6.834;2022-08-24T18:47:46;26.60;99.90
57026;DHT22;43961;52.940;6.834;2022-08-24T18:50:11;26.50;99.90
57026;DHT22;43961;52.940;6.834;2022-08-24T18:52:39;26.40;99.90
57026;DHT22;43961;52.940;6.834;2022-08-24T18:55:05;26.40;99.90
57026;DHT22;43961;52.940;6.834;2022-08-24T18:57:31;26.30;99.90
57026;DHT22;43961;52.940;6.834;2022-08-24T18:59:57;26.10;99.90
57026;DHT22;43961;52.940;6.834;2022-08-24T19:02:23;25.80;99.90
57026;DHT22;43961;52.940;6.834;2022-08-24T19:04:57;25.70;99.90
57026;DHT22;43961;52.940;6.834;2022-08-24T19:07:24;25.60;99.90
57026;DHT22;43961;52.940;6.834;2022-08-24T19:09:50;25.60;99.90
57026;DHT22;43961;52.940;6.834;2022-08-24T19:12:17;25.60;99.90
57026;DHT22;43961;52.940;6.834;2022-08-24T19:14:43;25.60;99.90
57026;DHT22;43961;52.940;6.834;2022-08-24T19:17:11;25.50;99.90
57026;DHT22;43961;52.940;6.834;2022-08-24T19:19:36;25.40;99.90
57026;DHT22;43961;52.940;6.834;2022-08-24T19:22:02;25.40;99.90